Impacts TAF Board
For situational awareness. Not to be used for flight planning purposes.
IDs:

KMEM - Memphis Intl, TN, US

Issued at 0522 UTC 24 Mar 2019
Updated at 0731 UTC 24 Mar 2019
Potential Impact None Slight Moderate High
Time0654Z 24/08Z 24/09Z 24/10Z 24/11Z 24/12Z 24/13Z 24/14Z 24/15Z 24/16Z 24/17Z 24/18Z 24/19Z 24/20Z>>
Type OBS PRVL PRVL PRVL PRVL PRVL
  [TEMP]  
PRVL
  [TEMP]  
PRVL
  [TEMP]  
PRVL
  [TEMP]  
PRVL PRVL PRVL PRVL PRVL
VIS 10 >6 >6 >6 >6 >6
  [5]  
>6
  [5]  
>6
  [5]  
>6
  [5]  
>6 >6 >6 >6 >6
CIG 200 150 150 150 80 80
  [50]  
80
  [50]  
80
  [50]  
80
  [50]  
40 40 40 40 40
Cover OVC BKN BKN BKN OVC OVC
  [OVC]  
OVC
  [OVC]  
OVC
  [OVC]  
OVC
  [OVC]  
BKN BKN BKN BKN BKN
FltCat VFR VFR VFR VFR VFR VFR
  [MVFR]  
VFR
  [MVFR]  
VFR
  [MVFR]  
VFR
  [MVFR]  
VFR VFR VFR VFR VFR
WX -- -- -- -- VCSH VCSH
  [-SHRA]  
VCSH
  [-SHRA]  
VCSH
  [-SHRA]  
VCSH
  [-SHRA]  
VCSH VCSH VCSH VCSH VCSH
WDir VRB 140 140 140 180 180
[180]
180
[180]
180
[180]
180
[180]
200 200 200 200 200
WSpd 3 5 5 5 7 7
  [7]  
7
  [7]  
7
  [7]  
7
  [7]  
10 10 10 10 10
WGst -- -- -- -- -- --
  [--]  
--
  [--]  
--
  [--]  
--
  [--]  
16 16 16 16 16
Raw TAF
KMEM 240522Z 2406/2512 14005KT P6SM SCT100 BKN150
  FM241100 18007KT P6SM VCSH OVC080
  TEMPO 2412/2416 5SM -SHRA OVC050
  FM241600 20010G16KT P6SM VCSH BKN040
  FM250000 19008KT P6SM BKN040
  FM250500 19008KT 5SM -SHRA VCTS OVC030CB
  FM250900 25005KT P6SM VCSH OVC020


Raw METAR
KMEM 240654Z VRB03KT 10SM OVC200 14/02 A3014 RMK AO2 SLP205 T01390017 $
KMEM 240554Z COR 00000KT 10SM OVC250 14/02 A3016 RMK AO2 SLP212 10078 20144 T01440017 401940056 58005 $
KMEM 240454Z VRB03KT 10SM SCT140 OVC200 15/02 A3018 RMK AO2 SLP217 T01500022 $

METAR Board
Radar Display
Forecast Discussion
For situational awareness. Not to be used for flight planning purposes.